Time;durP1;ratioP1;P1;durP2;ratioP2;P2;SDS_P1;SDS_P2;PMS_P1;PMS_P2;Temp;Humidity;BMP_temperature;BMP_pressure;BME280_temperature;BME280_humidity;BME280_pressure;Samples;Min_cycle;Max_cycle;Signal;HPM_P1;HPM_P2
2023/09/16 00:01:13;;;;;;;11.25;5.50;;;11.50;99.90;;;;;;5090182;28;20112;-77
2023/09/16 00:03:39;;;;;;;6.63;5.20;;;11.40;99.90;;;;;;5091360;28;20059;-76
2023/09/16 00:06:05;;;;;;;9.02;6.05;;;11.40;99.90;;;;;;5090743;28;20040;-78
2023/09/16 00:08:33;;;;;;;10.32;6.22;;;11.40;99.90;;;;;;5090468;28;20332;-76
2023/09/16 00:10:59;;;;;;;11.73;6.57;;;11.50;99.90;;;;;;5090460;28;20032;-77
2023/09/16 00:13:25;;;;;;;10.52;6.85;;;11.40;99.90;;;;;;5090321;28;20024;-77
2023/09/16 00:15:51;;;;;;;12.05;7.07;;;11.40;99.90;;;;;;5090703;28;20020;-77
2023/09/16 00:18:17;;;;;;;12.52;7.43;;;11.40;99.90;;;;;;5089698;28;20380;-77
2023/09/16 00:20:44;;;;;;;8.32;6.38;;;11.40;99.90;;;;;;5090619;28;20020;-76
2023/09/16 00:23:10;;;;;;;11.20;7.63;;;11.40;99.90;;;;;;5089842;28;20138;-77
2023/09/16 00:25:36;;;;;;;10.40;7.57;;;11.40;99.90;;;;;;5090152;28;20036;-77
2023/09/16 00:28:06;;;;;;;8.35;6.57;;;11.40;99.90;;;;;;5090052;28;20044;-77
2023/09/16 00:30:32;;;;;;;10.25;7.45;;;11.40;99.90;;;;;;5089017;28;20036;-78
2023/09/16 00:32:58;;;;;;;10.48;7.30;;;11.40;99.90;;;;;;5090152;28;20577;-78
2023/09/16 00:35:24;;;;;;;10.20;8.35;;;11.40;99.90;;;;;;5071029;28;20028;-78
2023/09/16 00:37:50;;;;;;;10.32;6.82;;;11.40;99.90;;;;;;5089941;28;20055;-78
2023/09/16 00:40:16;;;;;;;14.00;7.38;;;11.50;99.90;;;;;;5089955;28;20028;-75
2023/09/16 00:42:42;;;;;;;10.30;6.68;;;11.50;99.90;;;;;;5089609;28;20507;-76
2023/09/16 00:45:12;;;;;;;10.20;7.13;;;11.50;99.90;;;;;;5089378;28;20028;-77
2023/09/16 00:47:40;;;;;;;9.57;6.78;;;11.50;99.90;;;;;;5089604;28;20063;-75
2023/09/16 00:50:07;;;;;;;9.80;6.72;;;11.50;99.90;;;;;;5089842;28;20368;-76
2023/09/16 00:52:34;;;;;;;9.63;6.78;;;11.50;99.90;;;;;;5089273;28;20020;-76
2023/09/16 00:55:01;;;;;;;8.25;6.75;;;11.50;99.90;;;;;;5092613;28;20062;-76
2023/09/16 00:57:28;;;;;;;9.63;6.60;;;11.50;99.90;;;;;;5092588;28;20028;-76
2023/09/16 00:59:53;;;;;;;12.93;7.40;;;11.50;99.90;;;;;;5074428;28;20131;-77
2023/09/16 01:02:19;;;;;;;8.15;6.20;;;11.50;99.90;;;;;;5092133;28;20121;-77
2023/09/16 01:04:46;;;;;;;8.07;6.57;;;11.50;99.90;;;;;;5093316;28;20028;-77
2023/09/16 01:07:14;;;;;;;9.98;6.90;;;11.50;99.90;;;;;;5092415;28;20036;-77
2023/09/16 01:09:41;;;;;;;8.27;5.88;;;11.50;99.90;;;;;;5093087;28;20103;-77
2023/09/16 01:12:10;;;;;;;7.78;6.22;;;11.50;99.90;;;;;;5092989;28;20418;-77
2023/09/16 01:14:37;;;;;;;9.13;4.90;;;11.40;99.90;;;;;;5093215;28;20262;-76
2023/09/16 01:17:14;;;;;;;7.03;5.10;;;11.50;99.90;;;;;;5092813;28;20032;-77
2023/09/16 01:19:58;;;;;;;7.43;4.85;;;11.50;99.90;;;;;;5092699;28;20024;-76
2023/09/16 01:22:24;;;;;;;7.85;4.50;;;11.50;99.90;;;;;;5092192;28;20020;-76
2023/09/16 01:24:54;;;;;;;5.72;3.97;;;11.50;99.90;;;;;;5092898;28;20023;-76
2023/09/16 01:27:21;;;;;;;6.43;3.90;;;11.40;99.90;;;;;;5092163;28;20070;-76
2023/09/16 01:29:48;;;;;;;5.40;3.55;;;11.40;99.90;;;;;;5092515;28;20029;-76
2023/09/16 01:32:16;;;;;;;6.32;3.33;;;11.40;99.90;;;;;;5092344;28;20028;-76
2023/09/16 01:34:49;;;;;;;6.90;3.03;;;11.40;99.90;;;;;;5092815;28;20047;-76
2023/09/16 01:37:22;;;;;;;5.25;3.72;;;11.40;99.90;;;;;;5073842;28;20035;-76
2023/09/16 01:39:57;;;;;;;;;;;11.50;99.90;;;;;;5093186;28;20107;-76
2023/09/16 01:42:24;;;;;;;4.45;2.33;;;11.50;99.90;;;;;;5074315;28;19904;-76
2023/09/16 01:44:54;;;;;;;4.20;2.38;;;11.40;99.90;;;;;;5093359;28;20035;-76
2023/09/16 01:47:20;;;;;;;6.60;2.15;;;11.40;99.90;;;;;;5092771;28;20073;-76
2023/09/16 01:49:46;;;;;;;4.03;1.85;;;11.50;99.90;;;;;;5093222;28;20032;-77
2023/09/16 01:52:12;;;;;;;3.20;2.15;;;11.50;99.90;;;;;;5093466;28;20422;-77
2023/09/16 01:54:37;;;;;;;4.85;2.20;;;11.50;99.90;;;;;;5094247;28;20031;-76
2023/09/16 01:57:03;;;;;;;4.85;1.80;;;11.50;99.90;;;;;;5093266;28;20418;-76
2023/09/16 01:59:29;;;;;;;1.95;1.80;;;11.40;99.90;;;;;;5092280;28;20093;-75
2023/09/16 02:01:55;;;;;;;3.42;1.80;;;11.40;99.90;;;;;;5092564;28;20028;-76
2023/09/16 02:04:20;;;;;;;3.88;1.88;;;11.40;99.90;;;;;;5091982;28;20024;-77
2023/09/16 02:06:46;;;;;;;5.93;1.70;;;11.50;99.90;;;;;;5092571;28;20031;-77
2023/09/16 02:09:16;;;;;;;3.88;1.70;;;11.40;99.90;;;;;;5092243;28;20028;-76
2023/09/16 02:11:41;;;;;;;5.28;1.90;;;11.40;99.90;;;;;;5092311;28;20035;-76
2023/09/16 02:14:11;;;;;;;3.83;1.80;;;11.50;99.90;;;;;;5092692;28;20036;-76
2023/09/16 02:16:37;;;;;;;5.25;1.63;;;11.50;99.90;;;;;;5092077;28;20032;-76
2023/09/16 02:19:03;;;;;;;4.07;1.83;;;11.50;99.90;;;;;;5092309;28;20047;-76
2023/09/16 02:21:29;;;;;;;4.75;1.75;;;11.50;99.90;;;;;;5091870;28;20032;-76
2023/09/16 02:23:55;;;;;;;4.60;1.90;;;11.50;99.90;;;;;;5092177;28;20111;-76
2023/09/16 02:26:21;;;;;;;3.40;1.77;;;11.50;99.90;;;;;;5091282;28;20567;-77
2023/09/16 02:28:46;;;;;;;5.05;1.55;;;11.50;99.90;;;;;;5092022;28;20031;-77
2023/09/16 02:31:12;;;;;;;2.47;1.73;;;11.50;99.90;;;;;;5091892;28;20024;-78
2023/09/16 02:33:38;;;;;;;5.88;1.80;;;11.50;99.90;;;;;;5091876;28;20393;-77
2023/09/16 02:36:04;;;;;;;2.92;1.88;;;11.50;99.90;;;;;;5092202;28;20040;-77
2023/09/16 02:38:30;;;;;;;4.60;1.90;;;11.50;99.90;;;;;;5091165;28;20028;-77
2023/09/16 02:40:56;;;;;;;3.10;1.35;;;11.50;99.90;;;;;;5091894;28;20022;-77
2023/09/16 02:43:21;;;;;;;5.20;1.42;;;11.50;99.90;;;;;;5091120;28;20024;-77
2023/09/16 02:45:47;;;;;;;5.38;1.85;;;11.50;99.90;;;;;;5091772;28;20089;-78
2023/09/16 02:48:17;;;;;;;3.58;1.67;;;11.50;99.90;;;;;;5091460;28;20044;-78
2023/09/16 02:50:46;;;;;;;3.67;1.63;;;11.50;99.90;;;;;;5091812;28;20044;-77
2023/09/16 02:53:12;;;;;;;5.40;1.65;;;11.50;99.90;;;;;;5091447;28;20144;-76
2023/09/16 02:55:37;;;;;;;4.18;1.20;;;11.50;99.90;;;;;;5091306;28;20172;-77
2023/09/16 02:58:04;;;;;;;4.22;1.60;;;11.50;99.90;;;;;;5091486;28;20016;-77
2023/09/16 03:00:30;;;;;;;2.17;1.50;;;11.50;99.90;;;;;;5090820;28;20028;-77
2023/09/16 03:02:56;;;;;;;4.65;1.50;;;11.50;99.90;;;;;;5091752;28;20377;-76
2023/09/16 03:05:22;;;;;;;3.53;1.70;;;11.50;99.90;;;;;;5090933;28;20130;-78
2023/09/16 03:07:48;;;;;;;5.07;1.60;;;11.50;99.90;;;;;;5091312;28;20233;-77
2023/09/16 03:10:14;;;;;;;7.70;2.28;;;11.50;99.90;;;;;;5091083;28;20473;-78
2023/09/16 03:12:40;;;;;;;3.47;1.85;;;11.50;99.90;;;;;;5072767;28;20024;-77
2023/09/16 03:15:07;;;;;;;5.38;1.60;;;11.50;99.90;;;;;;5073196;28;20336;-77
2023/09/16 03:17:32;;;;;;;6.88;1.98;;;11.50;99.90;;;;;;5090143;28;20102;-77
2023/09/16 03:19:58;;;;;;;6.18;2.20;;;11.50;99.90;;;;;;5091564;28;20162;-77
2023/09/16 03:22:24;;;;;;;4.80;1.88;;;11.50;99.90;;;;;;5072054;28;20114;-75
2023/09/16 03:24:50;;;;;;;3.78;1.95;;;11.50;99.90;;;;;;5091555;28;20437;-77
2023/09/16 03:27:15;;;;;;;4.10;2.17;;;11.50;99.90;;;;;;5090693;28;20039;-78
2023/09/16 03:29:41;;;;;;;6.85;2.25;;;11.50;99.90;;;;;;5091259;28;20028;-76
2023/09/16 03:32:07;;;;;;;5.43;2.15;;;11.50;99.90;;;;;;5091093;28;20123;-77
2023/09/16 03:34:33;;;;;;;6.05;1.90;;;11.50;99.90;;;;;;5090470;28;20388;-77
2023/09/16 03:36:59;;;;;;;4.80;2.00;;;11.50;99.90;;;;;;5091332;28;20032;-77
2023/09/16 03:39:25;;;;;;;4.43;2.03;;;11.50;99.90;;;;;;5090323;28;20474;-78
2023/09/16 03:41:50;;;;;;;7.95;2.33;;;11.50;99.90;;;;;;5091006;28;20025;-76
2023/09/16 03:44:16;;;;;;;5.13;1.80;;;11.50;99.90;;;;;;5090932;28;20417;-78
2023/09/16 03:46:42;;;;;;;5.55;1.75;;;11.50;99.90;;;;;;5090199;28;20046;-76
2023/09/16 03:49:08;;;;;;;5.80;1.70;;;11.50;99.90;;;;;;5068893;28;20134;-76
2023/09/16 03:51:37;;;;;;;3.45;1.90;;;11.50;99.90;;;;;;5069723;28;20505;-76
2023/09/16 03:54:06;;;;;;;4.03;2.10;;;11.50;99.90;;;;;;5070788;28;20021;-76
2023/09/16 03:56:33;;;;;;;7.03;2.40;;;11.50;99.90;;;;;;5069803;28;20060;-76
2023/09/16 03:58:58;;;;;;;6.82;2.28;;;11.50;99.90;;;;;;5070595;28;20029;-76
2023/09/16 04:01:24;;;;;;;5.05;2.20;;;11.50;99.90;;;;;;5069614;28;20090;-75
2023/09/16 04:03:50;;;;;;;2.58;1.92;;;11.50;99.90;;;;;;5070195;28;20047;-76
2023/09/16 04:06:16;;;;;;;2.33;2.13;;;11.50;99.90;;;;;;5070490;28;20070;-77
2023/09/16 04:08:41;;;;;;;7.22;2.15;;;11.50;99.90;;;;;;5069906;28;20044;-77
2023/09/16 04:11:07;;;;;;;6.28;2.00;;;11.60;99.90;;;;;;5068931;28;20335;-77
2023/09/16 04:13:33;;;;;;;4.25;1.75;;;11.50;99.90;;;;;;5069816;28;20119;-76
2023/09/16 04:15:59;;;;;;;5.57;1.75;;;11.60;99.90;;;;;;5070623;28;20029;-76
2023/09/16 04:18:25;;;;;;;3.95;1.70;;;11.60;99.90;;;;;;5069857;28;20021;-76
2023/09/16 04:20:55;;;;;;;6.40;2.25;;;11.60;99.90;;;;;;5070493;28;20025;-75
2023/09/16 04:23:22;;;;;;;6.32;1.55;;;11.60;99.90;;;;;;5069937;28;20044;-77
2023/09/16 04:25:54;;;;;;;5.65;1.77;;;11.60;99.90;;;;;;5068638;28;20366;-75
2023/09/16 04:28:20;;;;;;;;;;;11.60;99.90;;;;;;5072581;28;20020;-76
2023/09/16 04:30:50;;;;;;;2.80;1.73;;;11.50;99.90;;;;;;5072405;28;20264;-75
2023/09/16 04:33:19;;;;;;;4.10;1.50;;;11.50;99.90;;;;;;5073398;28;20037;-76
2023/09/16 04:35:45;;;;;;;2.53;1.02;;;11.50;99.90;;;;;;5072207;28;20382;-77
2023/09/16 04:38:15;;;;;;;7.15;1.35;;;11.50;99.90;;;;;;5073917;28;20044;-76
2023/09/16 04:40:42;;;;;;;3.35;1.33;;;11.50;99.90;;;;;;5073192;28;20051;-77
2023/09/16 04:43:08;;;;;;;3.13;1.48;;;11.50;99.90;;;;;;5073497;28;20391;-76
2023/09/16 04:45:34;;;;;;;4.15;1.60;;;11.50;99.90;;;;;;5073197;28;20441;-75
2023/09/16 04:48:00;;;;;;;3.25;1.40;;;11.50;99.90;;;;;;5082588;28;20055;-76
2023/09/16 04:50:28;;;;;;;2.58;1.40;;;11.50;99.90;;;;;;5093362;28;20114;-76
2023/09/16 04:52:58;;;;;;;3.92;1.40;;;11.50;99.90;;;;;;5093926;28;20119;-76
2023/09/16 04:55:24;;;;;;;8.52;1.98;;;11.50;99.90;;;;;;5093381;28;20060;-77
2023/09/16 04:57:50;;;;;;;3.88;1.60;;;11.50;99.90;;;;;;5093684;28;20070;-76
2023/09/16 05:00:17;;;;;;;2.65;1.40;;;11.50;99.90;;;;;;5075297;28;20028;-77
2023/09/16 05:02:48;;;;;;;2.40;1.25;;;11.50;99.90;;;;;;5093054;28;20012;-77
2023/09/16 05:05:14;;;;;;;3.05;1.42;;;11.50;99.90;;;;;;5093420;28;20422;-76
2023/09/16 05:07:40;;;;;;;5.60;1.58;;;11.50;99.90;;;;;;5092986;28;20047;-77
2023/09/16 05:10:07;;;;;;;2.63;1.42;;;11.50;99.90;;;;;;5093451;28;20024;-77
2023/09/16 05:12:32;;;;;;;4.38;1.85;;;11.50;99.90;;;;;;5093031;28;20501;-75
2023/09/16 05:14:58;;;;;;;4.03;1.75;;;11.50;99.90;;;;;;5093711;28;20167;-76
2023/09/16 05:17:24;;;;;;;5.05;1.83;;;11.50;99.90;;;;;;5093046;28;20091;-77
2023/09/16 05:19:49;;;;;;;4.72;1.77;;;11.50;99.90;;;;;;5093189;28;20061;-76
2023/09/16 05:22:15;;;;;;;5.20;2.00;;;11.50;99.90;;;;;;5093419;28;20023;-76
2023/09/16 05:24:41;;;;;;;3.63;2.05;;;11.50;99.90;;;;;;5092355;28;20025;-76
2023/09/16 05:27:06;;;;;;;4.90;2.00;;;11.50;99.90;;;;;;5093060;28;20114;-76
2023/09/16 05:29:32;;;;;;;4.88;2.00;;;11.50;99.90;;;;;;5092222;28;20351;-75
2023/09/16 05:31:58;;;;;;;5.32;2.28;;;11.50;99.90;;;;;;5093080;28;20481;-77
2023/09/16 05:34:24;;;;;;;7.47;2.53;;;11.40;99.90;;;;;;5092790;28;20028;-77
2023/09/16 05:36:50;;;;;;;5.75;2.08;;;11.40;99.90;;;;;;5092801;28;20043;-76
2023/09/16 05:39:16;;;;;;;6.45;2.70;;;11.40;99.90;;;;;;5092585;28;20435;-76
2023/09/16 05:41:43;;;;;;;5.10;2.20;;;11.40;99.90;;;;;;5092431;28;20027;-76
2023/09/16 05:44:09;;;;;;;3.45;2.45;;;11.40;99.90;;;;;;5092925;28;20416;-76
2023/09/16 05:46:34;;;;;;;5.57;2.58;;;11.40;99.90;;;;;;5092353;28;20064;-76
2023/09/16 05:49:07;;;;;;;3.58;2.53;;;11.40;99.90;;;;;;5092870;28;20546;-76
2023/09/16 05:51:33;;;;;;;;;;;11.40;99.90;;;;;;5092824;28;20043;-76
2023/09/16 05:53:59;;;;;;;8.52;2.75;;;11.40;99.90;;;;;;5092559;28;19908;-76
2023/09/16 05:56:25;;;;;;;5.68;2.72;;;11.40;99.90;;;;;;5074419;28;20028;-77
2023/09/16 05:58:50;;;;;;;5.38;2.45;;;11.30;99.90;;;;;;5091778;28;20028;-75
2023/09/16 06:01:16;;;;;;;8.27;2.65;;;11.30;99.90;;;;;;5074018;28;20031;-76
2023/09/16 06:03:42;;;;;;;8.30;2.95;;;11.30;99.90;;;;;;5091775;28;20027;-76
2023/09/16 06:06:08;;;;;;;3.35;2.58;;;11.20;99.90;;;;;;5091953;28;20056;-76
2023/09/16 06:08:33;;;;;;;5.53;2.85;;;11.30;99.90;;;;;;5091480;28;20133;-76
2023/09/16 06:10:59;;;;;;;5.45;3.20;;;11.20;99.90;;;;;;5092803;28;20053;-76
2023/09/16 06:13:25;;;;;;;6.32;3.17;;;11.30;99.90;;;;;;5092186;28;20039;-76
2023/09/16 06:15:51;;;;;;;6.72;3.50;;;11.20;99.90;;;;;;5092367;28;20040;-76
2023/09/16 06:18:17;;;;;;;10.35;4.07;;;11.20;99.90;;;;;;5092211;28;20069;-77
2023/09/16 06:20:43;;;;;;;9.23;4.03;;;11.20;99.90;;;;;;5091530;28;20024;-77
2023/09/16 06:23:09;;;;;;;7.63;3.97;;;11.20;99.90;;;;;;5092356;28;20055;-76
2023/09/16 06:25:35;;;;;;;7.35;4.18;;;11.20;99.90;;;;;;5091468;28;20137;-77
2023/09/16 06:28:01;;;;;;;4.65;3.85;;;11.20;99.90;;;;;;5092055;28;20397;-77
2023/09/16 06:30:26;;;;;;;8.50;4.65;;;11.20;99.90;;;;;;5091670;28;20028;-77
2023/09/16 06:32:53;;;;;;;5.38;4.10;;;11.10;99.90;;;;;;5091948;28;20028;-76
2023/09/16 06:35:19;;;;;;;5.78;4.25;;;11.20;99.90;;;;;;5091970;28;20028;-76
2023/09/16 06:37:44;;;;;;;9.82;4.80;;;11.20;99.90;;;;;;5091727;28;20024;-76
2023/09/16 06:40:11;;;;;;;6.68;4.95;;;11.20;99.90;;;;;;5092261;28;20361;-76
2023/09/16 06:42:36;;;;;;;6.90;4.70;;;11.20;99.90;;;;;;5091514;28;20028;-77
2023/09/16 06:45:02;;;;;;;8.32;4.85;;;11.20;99.90;;;;;;5073834;28;20027;-76
2023/09/16 06:47:28;;;;;;;9.50;4.80;;;11.10;99.90;;;;;;5073020;28;20052;-77
2023/09/16 06:49:55;;;;;;;6.72;4.72;;;11.20;99.90;;;;;;5090950;28;20064;-76
2023/09/16 06:52:26;;;;;;;7.60;5.22;;;11.20;99.90;;;;;;5090623;28;20024;-77
2023/09/16 06:54:52;;;;;;;7.60;4.22;;;11.20;99.90;;;;;;5072616;28;20024;-76
2023/09/16 06:57:17;;;;;;;6.53;4.50;;;11.10;99.90;;;;;;5091490;28;20440;-76
2023/09/16 06:59:47;;;;;;;6.57;4.00;;;11.20;99.90;;;;;;5091018;28;20024;-76
2023/09/16 07:02:14;;;;;;;5.70;3.90;;;11.10;99.90;;;;;;5091145;28;20488;-76
2023/09/16 07:04:40;;;;;;;8.05;3.58;;;11.20;99.90;;;;;;5090301;28;20427;-76
2023/09/16 07:07:08;;;;;;;7.90;4.65;;;11.20;99.90;;;;;;5090880;28;20114;-76
2023/09/16 07:09:33;;;;;;;7.03;3.47;;;11.20;99.90;;;;;;5090557;28;20107;-78
2023/09/16 07:11:59;;;;;;;7.43;4.05;;;11.20;99.90;;;;;;5090911;28;20098;-77
2023/09/16 07:14:25;;;;;;;7.32;3.83;;;11.20;99.90;;;;;;5090974;28;20024;-77
2023/09/16 07:16:51;;;;;;;6.22;3.53;;;11.30;99.90;;;;;;5090401;28;20028;-77
2023/09/16 07:19:17;;;;;;;5.07;3.17;;;11.30;99.90;;;;;;5090300;28;20035;-77
2023/09/16 07:21:43;;;;;;;8.32;3.70;;;11.30;99.90;;;;;;5089976;28;20063;-76
2023/09/16 07:24:09;;;;;;;8.43;3.55;;;11.30;99.90;;;;;;5090451;28;20077;-76
2023/09/16 07:26:34;;;;;;;7.50;2.92;;;11.30;99.90;;;;;;5090052;28;20595;-77
2023/09/16 07:29:01;;;;;;;6.57;3.03;;;11.30;99.90;;;;;;5090500;28;20027;-77
2023/09/16 07:31:26;;;;;;;7.72;3.28;;;11.30;99.90;;;;;;5090576;28;20100;-77
2023/09/16 07:33:52;;;;;;;5.60;2.80;;;11.30;99.90;;;;;;5089690;28;20028;-77
2023/09/16 07:36:18;;;;;;;4.75;2.78;;;11.30;99.90;;;;;;5090304;28;20028;-77
2023/09/16 07:38:44;;;;;;;8.45;3.15;;;11.30;99.90;;;;;;5090020;28;20020;-76
2023/09/16 07:41:10;;;;;;;6.57;2.78;;;11.40;99.90;;;;;;5091699;28;20436;-76
2023/09/16 07:43:36;;;;;;;6.40;2.60;;;11.40;99.90;;;;;;5089925;28;20508;-77
2023/09/16 07:46:02;;;;;;;5.13;2.85;;;11.40;99.90;;;;;;5072248;28;20119;-77
2023/09/16 07:48:28;;;;;;;5.07;2.90;;;11.40;99.90;;;;;;5090718;28;20072;-76
2023/09/16 07:50:54;;;;;;;8.82;2.70;;;11.40;99.90;;;;;;5090095;28;20618;-77
2023/09/16 07:53:20;;;;;;;8.27;2.83;;;11.40;99.90;;;;;;5090811;28;20028;-76
2023/09/16 07:55:46;;;;;;;7.18;2.78;;;11.50;99.90;;;;;;5090324;28;20112;-76
2023/09/16 07:58:12;;;;;;;7.22;2.42;;;11.50;99.90;;;;;;5090423;28;20078;-76
2023/09/16 08:00:38;;;;;;;6.07;2.70;;;11.50;99.90;;;;;;5089714;28;20039;-76
2023/09/16 08:03:03;;;;;;;5.97;2.67;;;11.50;99.90;;;;;;5073510;28;20110;-76
2023/09/16 08:05:29;;;;;;;5.63;2.30;;;11.50;99.90;;;;;;5094386;28;20024;-76
2023/09/16 08:07:55;;;;;;;5.47;1.83;;;11.60;99.90;;;;;;5093541;28;20720;-77
2023/09/16 08:10:21;;;;;;;4.13;1.98;;;11.60;99.90;;;;;;5094718;28;20032;-77
2023/09/16 08:12:46;;;;;;;5.65;1.80;;;11.70;99.90;;;;;;5094162;28;20059;-77
2023/09/16 08:15:12;;;;;;;5.65;2.30;;;11.70;99.90;;;;;;5094807;28;20020;-75
2023/09/16 08:17:38;;;;;;;11.05;2.08;;;11.70;99.90;;;;;;5093415;28;20050;-77
2023/09/16 08:20:08;;;;;;;4.75;1.20;;;11.80;99.90;;;;;;5094311;28;20016;-76
2023/09/16 08:22:34;;;;;;;6.25;1.60;;;11.80;99.90;;;;;;5094163;28;20020;-76
2023/09/16 08:25:01;;;;;;;3.58;1.38;;;11.90;99.90;;;;;;5093960;28;20142;-76
2023/09/16 08:27:27;;;;;;;3.25;1.30;;;11.90;99.90;;;;;;5093937;28;20044;-75
2023/09/16 08:29:54;;;;;;;7.78;1.75;;;11.90;99.90;;;;;;5093340;28;20016;-75
2023/09/16 08:32:22;;;;;;;6.18;1.70;;;12.00;99.90;;;;;;5093622;28;20074;-75
2023/09/16 08:34:50;;;;;;;5.38;1.40;;;12.00;99.90;;;;;;5093359;28;20035;-75
2023/09/16 08:37:16;;;;;;;4.72;1.67;;;12.00;99.90;;;;;;5093228;28;20425;-76
2023/09/16 08:39:42;;;;;;;6.05;1.25;;;12.10;99.90;;;;;;5093296;28;20027;-76
2023/09/16 08:42:20;;;;;;;3.53;1.48;;;12.00;99.90;;;;;;5093284;28;20499;-76
2023/09/16 08:44:52;;;;;;;4.63;1.50;;;12.10;99.90;;;;;;5093572;28;20445;-76
2023/09/16 08:47:40;;;;;;;4.33;1.60;;;12.10;99.90;;;;;;5093496;28;20056;-76
2023/09/16 08:50:10;;;;;;;4.82;1.70;;;12.10;99.90;;;;;;5093879;28;20118;-77
2023/09/16 08:52:39;;;;;;;7.65;1.70;;;12.10;99.90;;;;;;5093980;28;20314;-77
2023/09/16 08:55:10;;;;;;;4.90;1.42;;;12.10;99.90;;;;;;5075322;28;20031;-76
2023/09/16 08:57:35;;;;;;;6.57;1.55;;;12.20;99.90;;;;;;5093302;28;20028;-76
2023/09/16 09:00:03;;;;;;;3.72;1.60;;;12.20;99.90;;;;;;5075166;28;20156;-77
2023/09/16 09:02:29;;;;;;;4.85;1.48;;;12.20;99.90;;;;;;5093175;28;20050;-76
2023/09/16 09:04:55;;;;;;;5.80;1.25;;;12.20;99.90;;;;;;5092602;28;20026;-78
2023/09/16 09:07:22;;;;;;;3.95;1.55;;;12.20;99.90;;;;;;5093358;28;20024;-77
2023/09/16 09:09:48;;;;;;;4.00;1.63;;;12.20;99.90;;;;;;5092595;28;20062;-78
2023/09/16 09:12:14;;;;;;;7.50;1.50;;;12.30;99.90;;;;;;5092928;28;20048;-78
2023/09/16 09:14:41;;;;;;;8.65;2.15;;;12.30;99.90;;;;;;5092556;28;20021;-78
2023/09/16 09:17:09;;;;;;;4.47;1.30;;;12.30;99.90;;;;;;5094250;28;20073;-77
2023/09/16 09:19:36;;;;;;;4.20;1.10;;;12.30;99.90;;;;;;5093785;28;20023;-76
2023/09/16 09:22:02;;;;;;;5.47;1.42;;;12.30;99.90;;;;;;5093830;28;20016;-77
2023/09/16 09:24:28;;;;;;;5.10;1.38;;;12.30;99.90;;;;;;5093733;28;20032;-77
2023/09/16 09:26:53;;;;;;;4.93;1.45;;;12.30;99.90;;;;;;5093390;28;20024;-77
2023/09/16 09:29:21;;;;;;;5.53;1.42;;;12.30;99.90;;;;;;5094002;28;20156;-78
2023/09/16 09:31:48;;;;;;;7.75;1.55;;;12.30;99.90;;;;;;5092911;28;20384;-77
2023/09/16 09:34:19;;;;;;;7.13;1.38;;;12.30;99.90;;;;;;5093517;28;20024;-77
2023/09/16 09:36:46;;;;;;;6.18;1.38;;;12.30;99.90;;;;;;5093253;28;20046;-78
2023/09/16 09:39:12;;;;;;;2.83;1.27;;;12.30;99.90;;;;;;5093549;28;20016;-78
2023/09/16 09:41:46;;;;;;;4.65;1.60;;;12.20;99.90;;;;;;5075478;28;20116;-77
2023/09/16 09:44:13;;;;;;;3.67;1.30;;;12.20;99.90;;;;;;5075246;28;20046;-77
2023/09/16 09:46:40;;;;;;;5.75;1.55;;;12.20;99.90;;;;;;5093486;28;20032;-77
2023/09/16 09:49:06;;;;;;;4.53;1.30;;;12.20;99.90;;;;;;5092965;28;20048;-77
2023/09/16 09:51:32;;;;;;;4.93;1.35;;;12.20;99.90;;;;;;5093434;28;20049;-77
2023/09/16 09:53:58;;;;;;;9.07;2.05;;;12.30;99.90;;;;;;5092836;28;20055;-76
2023/09/16 09:56:24;;;;;;;7.65;1.85;;;12.30;99.90;;;;;;5092653;28;20433;-77
2023/09/16 09:58:50;;;;;;;10.57;1.83;;;12.30;99.90;;;;;;5074105;28;20024;-77
2023/09/16 10:01:16;;;;;;;6.43;1.63;;;12.30;99.90;;;;;;5075199;28;20035;-77
2023/09/16 10:03:48;;;;;;;4.75;1.38;;;12.30;99.90;;;;;;5092525;28;20464;-78
2023/09/16 10:06:16;;;;;;;5.72;1.65;;;12.30;99.90;;;;;;5093239;28;20040;-76
2023/09/16 10:08:42;;;;;;;4.45;1.90;;;12.30;99.90;;;;;;5092857;28;20036;-77
2023/09/16 10:11:09;;;;;;;11.60;1.88;;;12.30;99.90;;;;;;5092768;28;20107;-76
2023/09/16 10:13:35;;;;;;;9.57;1.65;;;12.30;99.90;;;;;;5092845;28;20024;-76
2023/09/16 10:16:01;;;;;;;5.93;1.30;;;12.30;99.90;;;;;;5091411;28;20035;-77
2023/09/16 10:18:30;;;;;;;4.82;1.48;;;12.30;99.90;;;;;;5092504;28;20016;-76
2023/09/16 10:20:57;;;;;;;6.13;1.60;;;12.30;99.90;;;;;;5091667;28;20026;-76
2023/09/16 10:23:23;;;;;;;8.82;1.98;;;12.30;99.90;;;;;;5092498;28;20039;-77
2023/09/16 10:25:50;;;;;;;7.07;1.80;;;12.30;99.90;;;;;;5092035;28;20136;-77
2023/09/16 10:28:17;;;;;;;4.95;1.70;;;12.30;99.90;;;;;;5092377;28;20392;-76
2023/09/16 10:30:43;;;;;;;10.23;1.40;;;12.40;99.90;;;;;;5092719;28;20406;-77
2023/09/16 10:33:10;;;;;;;5.78;1.30;;;12.40;99.90;;;;;;5092534;28;20534;-76
2023/09/16 10:35:41;;;;;;;7.05;1.40;;;12.40;99.90;;;;;;5092176;28;20099;-76
2023/09/16 10:38:08;;;;;;;6.28;1.30;;;12.40;99.90;;;;;;5091953;28;20028;-76
2023/09/16 10:40:35;;;;;;;5.10;1.45;;;12.40;99.90;;;;;;5092523;28;20077;-76
2023/09/16 10:43:02;;;;;;;5.50;1.38;;;12.40;99.90;;;;;;5091629;28;20021;-77
2023/09/16 10:45:28;;;;;;;5.30;1.38;;;12.40;99.90;;;;;;5092062;28;20066;-77
2023/09/16 10:47:54;;;;;;;8.57;1.60;;;12.40;99.90;;;;;;5091353;28;20072;-76
2023/09/16 10:50:24;;;;;;;5.00;1.38;;;12.50;99.90;;;;;;5092547;28;20032;-76
2023/09/16 10:53:10;;;;;;;10.00;1.60;;;12.50;99.90;;;;;;5091514;28;20085;-76
2023/09/16 10:55:58;;;;;;;7.75;1.55;;;12.50;99.90;;;;;;5092451;28;20024;-76
2023/09/16 10:58:36;;;;;;;7.57;1.52;;;12.50;99.90;;;;;;5092350;28;20024;-76
2023/09/16 11:01:02;;;;;;;6.53;1.38;;;12.50;99.90;;;;;;5091346;28;20063;-76
2023/09/16 11:03:31;;;;;;;6.00;1.67;;;12.60;99.90;;;;;;5092348;28;20484;-76
2023/09/16 11:05:59;;;;;;;6.22;1.65;;;12.60;99.90;;;;;;5091393;28;20032;-77
2023/09/16 11:08:25;;;;;;;9.70;1.38;;;12.60;99.90;;;;;;5092089;28;20123;-77
2023/09/16 11:10:53;;;;;;;5.13;1.30;;;12.70;99.90;;;;;;5091245;28;20107;-77
2023/09/16 11:13:20;;;;;;;9.00;1.13;;;12.70;99.90;;;;;;5091748;28;20081;-77
2023/09/16 11:15:46;;;;;;;6.93;1.40;;;12.70;99.90;;;;;;5091864;28;20076;-79
2023/09/16 11:18:16;;;;;;;6.50;1.13;;;12.70;99.90;;;;;;5091374;28;20028;-77
2023/09/16 11:20:42;;;;;;;6.10;1.58;;;12.80;99.90;;;;;;5091758;28;20023;-77
2023/09/16 11:23:09;;;;;;;5.80;1.58;;;12.80;99.90;;;;;;5090775;28;20075;-77
2023/09/16 11:25:37;;;;;;;3.25;1.40;;;12.70;99.90;;;;;;5091647;28;20032;-78
2023/09/16 11:28:10;;;;;;;6.20;1.52;;;12.80;99.90;;;;;;5091278;28;20443;-78
2023/09/16 11:30:37;;;;;;;6.10;1.20;;;12.90;99.90;;;;;;5092166;28;20020;-78
2023/09/16 11:33:04;;;;;;;6.35;1.30;;;12.90;99.90;;;;;;5091880;28;20440;-78
2023/09/16 11:35:31;;;;;;;2.50;1.20;;;12.90;99.90;;;;;;5092472;28;20052;-77
2023/09/16 11:37:58;;;;;;;5.47;1.15;;;13.10;99.90;;;;;;5092014;28;20109;-78
2023/09/16 11:40:32;;;;;;;8.50;1.45;;;13.10;99.90;;;;;;5092631;28;20032;-77
2023/09/16 11:42:59;;;;;;;5.15;1.38;;;13.10;99.90;;;;;;5093320;28;20039;-76
2023/09/16 11:45:27;;;;;;;6.43;1.45;;;13.00;99.90;;;;;;5075012;28;20028;-77
2023/09/16 11:47:52;;;;;;;6.28;1.35;;;13.00;99.90;;;;;;5090988;28;20499;-77
2023/09/16 11:50:23;;;;;;;4.45;0.85;;;12.90;99.90;;;;;;5091689;28;20040;-77
2023/09/16 11:52:49;;;;;;;4.35;0.93;;;12.90;99.90;;;;;;5091497;28;20111;-79
2023/09/16 11:55:16;;;;;;;5.75;1.10;;;12.90;99.90;;;;;;5091355;28;20031;-77
2023/09/16 11:57:42;;;;;;;6.30;1.17;;;12.90;99.90;;;;;;5091806;28;20052;-77
2023/09/16 12:00:09;;;;;;;3.05;0.93;;;12.90;99.90;;;;;;5072953;28;20465;-78
2023/09/16 12:02:35;;;;;;;5.50;1.08;;;12.90;99.90;;;;;;5073393;28;20411;-77
2023/09/16 12:05:03;;;;;;;7.78;1.20;;;12.90;99.90;;;;;;5090042;28;20054;-77
2023/09/16 12:07:32;;;;;;;3.78;1.40;;;13.00;99.90;;;;;;5090838;28;20089;-78
2023/09/16 12:10:01;;;;;;;3.47;1.10;;;13.00;99.90;;;;;;5090156;28;20075;-77
2023/09/16 12:12:28;;;;;;;4.85;1.00;;;13.00;99.90;;;;;;5072469;28;20020;-77
2023/09/16 12:14:59;;;;;;;6.55;1.00;;;13.00;99.90;;;;;;5090147;28;20111;-78
2023/09/16 12:17:25;;;;;;;4.03;1.50;;;12.90;99.90;;;;;;5090487;28;20078;-76
2023/09/16 12:19:53;;;;;;;7.43;1.33;;;12.90;99.90;;;;;;5090079;28;20031;-77
2023/09/16 12:22:20;;;;;;;7.07;1.38;;;12.90;99.90;;;;;;5090230;28;20031;-76
2023/09/16 12:24:46;;;;;;;5.13;1.30;;;13.00;99.90;;;;;;5090590;28;20035;-76
2023/09/16 12:27:12;;;;;;;5.18;1.15;;;12.90;99.90;;;;;;5090023;28;20123;-76
2023/09/16 12:29:38;;;;;;;4.07;1.02;;;13.00;99.90;;;;;;5090294;28;20087;-77
2023/09/16 12:32:11;;;;;;;5.30;1.38;;;13.00;99.90;;;;;;5089915;28;20067;-78
2023/09/16 12:34:37;;;;;;;7.35;1.30;;;13.00;99.90;;;;;;5090516;28;20055;-77
2023/09/16 12:37:04;;;;;;;3.85;0.90;;;13.00;99.90;;;;;;5089798;28;20068;-76
2023/09/16 12:39:33;;;;;;;5.18;1.00;;;13.00;99.90;;;;;;5090329;28;20032;-77
2023/09/16 12:42:03;;;;;;;4.50;1.25;;;13.00;99.90;;;;;;5089702;28;20024;-78
2023/09/16 12:44:31;;;;;;;1.77;0.80;;;13.00;99.90;;;;;;5090109;28;20028;-77
2023/09/16 12:46:59;;;;;;;5.88;1.00;;;13.00;99.90;;;;;;5090010;28;20047;-76